Tiempo atmosférico en la estación meteorológica de Antequera, Málaga (400 m.)



Fecha
DESCASC
Temp. máxima en grados centígrados (hora)
DESCASC
Temp. mínima en grados centígrados (hora)
DESCASC
Temp. media en grados centígrados
DESCASC
Racha de viento máxima en m/sg (hora)
DESCASC
Velocidad máxima media en intervalos de 10 minutos(hora)
DESCASC
Precipitaciones diarias en mm
DESCASC
Precipitaciones de 00:00 a 06:00 en mm
DESCASC
Precipitaciones de 06:00 a 12:00 en mm
DESCASC
Precipitaciones de 12:00 a 18:00 en mm
DESCASC
Precipitaciones de 18:00 a 24:00 en mm
DESCASC
05-04-2020 18.1 (16:20) 11.3 (08:30) 14.7 13.61 (01:00) 6.11 (01:00) 0.9 0.9 0 0 0
04-04-2020 15.5 (12:10) 10.1 (00:50) 12.8 16.39 (15:10) 9.17 (15:20) 0.1 0 0 0.1 0
03-04-2020 17.4 (16:00) 5 (07:20) 11.2 12.22 (19:20) 6.11 (19:10) 0 0 0 0 0
02-04-2020 12.5 (17:30) 5.8 (00:00) 9.2 10.83 (07:20) 5 (14:50) 8.6 0.5 7.9 0.2 0
01-04-2020 16.3 (17:40) 8.8 (00:00) 12.5 8.61 (20:20) 4.44 (20:30) 0.6 0 0.6 0 0
31-03-2020 15.7 (15:40) 9.8 (00:00) 12.8 13.33 (03:10) 6.11 (03:10) 13.4 6.4 4.2 2.2 0.6
30-03-2020 17.2 (15:50) 9.8 (00:00) 13.5 7.22 (17:10) 3.33 (16:40) 0.7 0 0 0 0.7
29-03-2020 18.1 (17:40) 7.3 (00:00) 12.7 6.39 (03:40) 3.33 (01:30) 0 0 0 0 0
28-03-2020 14.5 (12:40) 7.2 (00:00) 10.8 10.28 (15:10) 5 (15:20) 0 0 0 0 0
27-03-2020 15.9 (13:10) 7.6 (00:00) 11.7 10.28 (12:20) 5.83 (14:50) 0 0 0 0 0
26-03-2020 18.7 (17:10) 7.7 (00:00) 13.2 10.28 (14:00) 4.44 (14:30) 0.1 0.1 0 0 0
25-03-2020 12.9 (17:10) 8.9 (00:00) 10.9 6.39 (11:20) 2.78 (15:50) 6.9 0.4 1.8 2.2 2.5
24-03-2020 16.8 (14:20) 8.3 (00:00) 12.5 5.28 (17:50) 2.78 (06:20) 3.3 1.4 1.4 0 0.5
23-03-2020 14.4 (13:20) 5 (00:00) 9.7 6.94 (16:40) 3.33 (14:20) 5.3 0 0 0.5 4.8
22-03-2020 13.3 (13:00) 7.4 (07:30) 10.4 6.39 (13:40) 3.33 (13:40) 3.1 0.7 0 2.4 0
21-03-2020 13.5 (13:00) 7.5 (00:00) 10.5 12.78 (01:00) 5 (00:10) 23.5 17 0 3.2 3.3
20-03-2020 17.1 (15:40) 10 (00:00) 13.6 14.72 (21:30) 8.33 (21:30) 0.1 0 0 0 0.1
19-03-2020 15.9 (13:50) 10.8 (00:00) 13.3 10.83 (00:10) 5.28 (16:20) 0 0 0 0 0
18-03-2020 18.3 (14:50) 7.5 (00:00) 12.9 12.5 (16:40) 5.83 (16:40) 0.1 0 0.1 0 0
17-03-2020 14.7 (15:10) 5.7 (00:00) 10.2 11.94 (11:10) 6.94 (11:10) 1.4 0.7 0.4 0.3 0
16-03-2020 13.1 (14:50) 6.8 (00:00) 10 10.56 (15:20) 5.83 (14:30) 0.1 0 0.1 0 0
15-03-2020 18.4 (16:20) 11.7 (00:00) 15 11.67 (03:20) 4.44 (04:00) 0 0 0 0 0
14-03-2020 22 (15:10) 6.9 (00:00) 14.5 6.39 (16:00) 3.33 (17:40) 0 0 0 0 0
13-03-2020 22.3 (15:10) 8.2 (08:20) 15.2 6.39 (16:30) 3.33 (16:30) 0 0 0 0 0
12-03-2020 26.9 (15:30) 15.7 (00:00) 21.3 8.89 (12:10) 3.89 (14:10) 0 0 0 0 0
11-03-2020 26.4 (15:00) 7.2 (00:00) 16.8 12.22 (14:50) 6.11 (14:50) 0 0 0 0 0
10-03-2020 22.4 (13:10) 5.6 (00:00) 14 8.89 (13:20) 4.72 (13:30) 0 0 0 0 0
09-03-2020 20.8 (15:20) 4.2 (00:00) 12.5 6.67 (16:00) 2.78 (15:20) 0 0 0 0 0
08-03-2020 22.1 (16:40) 1.1 (00:00) 11.6 6.11 (16:30) 3.06 (16:40) 0 0 0 0 0

Gráficas

Temp. máximas Temp. mínimas Temp. medias Precipitaciones Rachas de viento máximas Velocidades máximas media en intervalos de 10 minutos

Datos horarios

Fecha y hora oficial Temperatura (ºC) Velocidad del viento (km/h) Dirección del viento Racha (km/h) Dirección de racha Precipitación (mm) Presión (hPa) Tendencia (hPa) Humedad (%)
2020-04-06 23:00:00 14.4 2 Oeste 16 Sur 0 974.6 2 80
2020-04-06 22:00:00 15.2 0 Calma 14 Sur 0 974 1.5 76
2020-04-06 21:00:00 15.4 4 Sur 15 Sur 0 972.8 0.2 74
2020-04-06 20:00:00 17.6 5 Sur 16 Sudeste 0 972.6 -0.3 66
2020-04-06 19:00:00 17.9 5 Sudeste 18 Sudeste 0 972.5 -0.7 64
2020-04-06 18:00:00 18.5 9 Sudeste 21 Sudeste 0 972.6 -0.7 63
2020-04-06 17:00:00 18.6 2 Sudeste 19 Sur 0 972.9 -0.6 62
2020-04-06 16:00:00 18 8 Sudeste 24 Sur 0 973.2 -0.7 62
2020-04-06 15:00:00 18.4 12 Sudeste 28 Sudeste 0 973.3 -0.3 61
2020-04-06 14:00:00 17.3 11 Sudeste 28 Sudeste 0 973.5 0.2 64
2020-04-06 13:00:00 15.8 12 Sudeste 27 Sudeste 0 973.9 1 65
2020-04-06 12:00:00 15.9 13 Sudeste 25 Sur 0 973.6 1.3 65
2020-04-06 11:00:00 15.2 9 Sudeste 24 Sur 0 973.3 1.8 68
2020-04-06 10:00:00 13.2 0 Calma 15 Sudoeste 0 972.9 1.7 72
2020-04-06 09:00:00 12.4 3 Oeste 15 Sur 0 972.3 1.1 72
2020-04-06 08:00:00 11.7 0 Calma 5 Oeste 0 971.5 0.9 74
2020-04-06 07:00:00 11.6 0 Calma 8 Sudeste 0 971.2 0.1 75
2020-04-06 06:00:00 11.2 2 Oeste 9 Noroeste 0 971.2 -0.2 78
2020-04-06 05:00:00 10.8 0 Calma 4 Oeste 0 970.6 -1 78
2020-04-06 04:00:00 11 0 Calma 9 Sudoeste 0 971.1 -0.5 78
2020-04-06 03:00:00 11.1 0 Calma 12 Sur 0 971.4 0.3 77
2020-04-06 02:00:00 11.6 4 Sur 18 Sur 0 971.6 0.4 77
2020-04-06 01:00:00 11.9 0 Calma 22 Sur 0 971.6 1.1 76
2020-04-06 00:00:00 11.8 11 Sur 23 Sur 0 971.1 1.2 76
2020-04-05 23:00:00 11.8 9 Sur 21 Sur 0 971.2 1.9 73
2020-04-05 22:00:00 12.9 3 Sur 19 Sur 0 970.5 1.5 63
2020-04-05 21:00:00 13.6 3 Sur 22 Sudeste 0 969.9 1.1 56
2020-04-05 20:00:00 14.8 8 Sur 33 Sudeste 0 969.3 0.4 52
2020-04-05 19:00:00 15.7 13 Sudeste 39 Sudeste 0 969 0.1 50
2020-04-05 18:00:00 16.6 18 Sudeste 39 Sur 0 968.8 -0.6 48
2020-04-05 17:00:00 16.9 18 Sur 41 Sur 0 968.9 -1 47
2020-04-05 16:00:00 17.1 17 Sur 38 Sur 0 968.9 -1.1 47
2020-04-05 15:00:00 17.5 15 Sur 41 Sur 0 969.4 -0.7 45
2020-04-05 14:00:00 17 14 Sur 35 Sur 0 969.9 -0.2 46
2020-04-05 13:00:00 16.6 17 Sur 39 Sudeste 0 970 0.5 47
2020-04-05 12:00:00 15.2 16 Sur 43 Sur 0 970.1 0.8 52
2020-04-05 11:00:00 14.5 8 Sur 30 Sudeste 0 970.1 1.6 54
2020-04-05 10:00:00 13.7 6 Sur 19 Sudeste 0 969.5 1.5 62
2020-04-05 09:00:00 12.3 2 Sudeste 21 Sur 0 969.3 1.5 68
2020-04-05 08:00:00 12 9 Sur 25 Sur 0 968.5 0.9 66
2020-04-05 07:00:00 11.8 4 Sur 28 Sur 0 968 0.5 70
2020-04-05 06:00:00 11.7 10 Sur 37 Sur 0 967.8 0.2 74
2020-04-05 05:00:00 11.7 13 Sur 41 Sur 0 967.6 -0.5 74
2020-04-05 04:00:00 12 11 Sur 35 Sur 0 967.5 -0.7 72
2020-04-05 03:00:00 12.5 11 Sur 41 Sur 0 967.6 -0.8 66
2020-04-05 02:00:00 13 8 Sudoeste 42 Sudeste 0 968.1 -0.4 64
2020-04-05 01:00:00 12.5 22 Sur 49 Sudeste 0.9 968.2 0.5 69
2020-04-05 00:00:00 12.7 9 Sur 36 Sudeste 0 968.4 1.3 68
2020-04-04 23:00:00 13 10 Sur 45 Sur 0 968.5 2 63
2020-04-04 22:00:00 12.7 17 Sur 42 Sur 0 967.7 1.3 65
2020-04-04 21:00:00 13.1 6 Sur 47 Sudeste 0 967.1 1.2 64
2020-04-04 20:00:00 13.4 13 Sur 44 Sudeste 0 966.5 1 63
2020-04-04 19:00:00 13.5 11 Sur 36 Sur 0 966.4 0.1 63
2020-04-04 18:00:00 13.4 8 Sur 40 Sudeste 0.1 965.9 -1 65
2020-04-04 17:00:00 13.2 12 Sur 40 Sudeste 0 965.5 -1.3 63
2020-04-04 16:00:00 12.7 17 Sudeste 59 Sur 0 966.3 0.3 71
2020-04-04 15:00:00 13.7 10 Sur 42 Sur 0 966.9 0.9 58
2020-04-04 14:00:00 14.5 19 Sur 52 Sur 0 966.8 1.4 50
2020-04-04 13:00:00 15 13 Sur 45 Sudeste 0 966 1.2 47
2020-04-04 12:00:00 14.6 6 Sudoeste 24 Sudoeste 0 966 1.1 51
2020-04-04 11:00:00 14.3 7 Sur 32 Sudeste 0 965.4 1 47
2020-04-04 10:00:00 13.1 14 Sudeste 41 Sudeste 0 964.8 0.5 52
2020-04-04 09:00:00 12.3 15 Este 33 Sudeste 0 964.9 0.3 57
2020-04-04 08:00:00 11.5 16 Sudeste 41 Sudeste 0 964.4 -0.6 59
2020-04-04 07:00:00 11.2 18 Sudeste 39 Este 0 964.3 -1.2 64
2020-04-04 06:00:00 10.7 12 Sudeste 41 Sudeste 0 964.6 -1.5 69
2020-04-04 05:00:00 11.3 15 Sudeste 55 Sudeste 0 965 -1.4 63
2020-04-04 04:00:00 11.1 16 Sudeste 37 Sudeste 0 965.5 -1.7 68
2020-04-04 03:00:00 10.4 13 Sudeste 44 Sur 0 966.1 -1.4 78
2020-04-04 02:00:00 10.6 17 Sudeste 38 Sudeste 0 966.4 -0.9 75
2020-04-04 01:00:00 10.2 12 Sudeste 29 Sudeste 0 967.2 0.4 82
2020-04-04 00:00:00 10.6 10 Sudeste 29 Sur 0 967.5 1.2 75
2020-04-03 23:00:00 11.5 5 Sudeste 22 Sur 0 967.3 0.8 65
2020-04-03 22:00:00 12 9 Sudeste 23 Sur 0 966.8 0.6 62
2020-04-03 21:00:00 12.3 7 Sur 32 Sur 0 966.3 0 56
2020-04-03 20:00:00 13.8 16 Sur 44 Sudeste 0 966.5 0.2 51
2020-04-03 19:00:00 14.6 21 Sudeste 40 Sudeste 0 966.2 -0.3 50
2020-04-03 18:00:00 15.9 12 Sur 33 Sudeste 0 966.3 -0.9 47
2020-04-03 17:00:00 16.5 16 Sur 38 Sur 0 966.3 -1.4 48
2020-04-03 16:00:00 16.3 8 Sur 24 Sur 0 966.5 -1.6 50
2020-04-03 15:00:00 17.1 13 Sudeste 25 Sudeste 0 967.2 -1.1 49
2020-04-03 14:00:00 15.9 6 Sur 16 Sur 0 967.7 -0.3 52
2020-04-03 13:00:00 15.5 0 Calma 10 Este 0 968.1 0.1 53
2020-04-03 12:00:00 14.2 3 Este 10 Este 0 968.3 0.6 58
2020-04-03 11:00:00 11.6 3 Nordeste 8 Este 0 968 1.1 72
2020-04-03 10:00:00 7.9 0 Calma 7 Noroeste 0 968 1.4 88
2020-04-03 09:00:00 6.2 0 Calma 6 Oeste 0 967.7 1.2 90
2020-04-03 08:00:00 5.5 0 Calma 7 Noroeste 0 966.9 0.3 94
2020-04-03 07:00:00 5.4 0 Calma 5 Oeste 0 966.6 -0.1 93
2020-04-03 06:00:00 5.7 0 Calma 6 Nordeste 0 966.5 -0.6 92
2020-04-03 05:00:00 6.4 0 Calma 13 Nordeste 0 966.6 -0.9 90
2020-04-03 04:00:00 6.6 5 Nordeste 12 Este 0 966.7 -0.6 93
2020-04-03 03:00:00 7 3 Nordeste 9 Nordeste 0 967.1 0 92
2020-04-03 02:00:00 7.3 0 Calma 2 Nordeste 0 967.5 1 89
2020-04-03 01:00:00 7.5 0 Calma 0 Calma 0 967.3 1.3 84
2020-04-03 00:00:00 8.2 0 Calma 3 Sudoeste 0 967.1 2 82
2020-04-02 23:00:00 9.1 0 Calma 8 Noroeste 0 966.5 1.8 77
2020-04-02 22:00:00 9.2 3 Noroeste 9 Noroeste 0 966 1.6 76
2020-04-02 21:00:00 10 0 Calma 15 Noroeste 0 965.1 1.4 71
2020-04-02 20:00:00 11.3 6 Oeste 24 Noroeste 0 964.7 1.3 69
2020-04-02 19:00:00 12 12 Noroeste 26 Noroeste 0 964.4 1.1 65
2020-04-02 18:00:00 12 17 Noroeste 31 Noroeste 0 963.7 0.5 63
2020-04-02 17:00:00 11.8 16 Noroeste 33 Oeste 0 963.4 0.8 65
2020-04-02 16:00:00 10.5 10 Oeste 27 Noroeste 0.1 963.3 1.2 68
2020-04-02 15:00:00 9.6 15 Noroeste 32 Noroeste 0 963.2 0.3 70
2020-04-02 14:00:00 12.2 5 Oeste 15 Oeste 0 962.6 0.2 54
2020-04-02 13:00:00 9.6 6 Sudeste 20 Sudoeste 0.1 962.1 0 66
2020-04-02 12:00:00 9.2 2 Sudoeste 11 Sudoeste 0 962.9 0.9 74
2020-04-02 11:00:00 8.6 0 Calma 10 Nordeste 0 962.4 0.1 78
2020-04-02 10:00:00 7.3 3 Nordeste 12 Norte 0 962.1 0.2 83
2020-04-02 09:00:00 6.1 0 Calma 11 Este 0.4 962 0.5 88
2020-04-02 08:00:00 5.9 4 Sudoeste 39 Oeste 4.8 962.3 0.4 89
2020-04-02 07:00:00 7.9 11 Noroeste 22 Oeste 2.7 961.9 -0.9 93
2020-04-02 06:00:00 8.4 0 Calma 10 Norte 0.4 961.5 -2.1 86
2020-04-02 05:00:00 8.1 6 Nordeste 9 Nordeste 0 961.9 -2.3 87
2020-04-02 04:00:00 8.8 4 Noroeste 10 Oeste 0.1 962.8 -2.1 83
2020-04-02 03:00:00 8.2 2 Oeste 7 Noroeste 0 963.6 -1.7 87
2020-04-02 02:00:00 8.1 0 Calma 8 Sur 0 964.2 -1.2 87
2020-04-02 01:00:00 8.1 0 Calma 6 Oeste 0 964.9 -0.1 85
2020-04-02 00:00:00 9.1 3 Nordeste 6 Nordeste 0 965.3 1.2 79
2020-04-01 23:00:00 9.3 2 Oeste 12 Oeste 0 965.4 1.8 78
2020-04-01 22:00:00 10 4 Oeste 18 Oeste 0 965 1.6 76
2020-04-01 21:00:00 10.7 8 Oeste 31 Noroeste 0 964.1 1.3 69
2020-04-01 20:00:00 13.5 12 Oeste 26 Oeste 0 963.6 0.7 52
2020-04-01 19:00:00 14.3 11 Noroeste 30 Oeste 0 963.4 -0.3 57
2020-04-01 18:00:00 15.3 9 Oeste 31 Oeste 0 962.8 -0.7 47
2020-04-01 17:00:00 15.6 8 Sudoeste 23 Sudoeste 0 962.9 -1.5 45
2020-04-01 16:00:00 14.4 10 Oeste 24 Oeste 0 963.7 -1.1 51
2020-04-01 15:00:00 15 7 Oeste 26 Oeste 0 963.5 -1.6 51
2020-04-01 14:00:00 12.8 3 Noroeste 21 Noroeste 0 964.4 -0.4 63
2020-04-01 13:00:00 12.6 8 Noroeste 19 Noroeste 0 964.8 0.4 66
2020-04-01 12:00:00 11.1 3 Noroeste 17 Noroeste 0.6 965.1 1.4 84
2020-04-01 11:00:00 11.2 5 Oeste 13 Noroeste 0 964.8 1.8 80
2020-04-01 10:00:00 10.5 8 Noroeste 14 Noroeste 0 964.4 1.8 83
2020-04-01 09:00:00 10 4 Noroeste 10 Noroeste 0 963.7 1.3 90
2020-04-01 08:00:00 9.8 0 Calma 6 Norte 0 963 0.6 90
2020-04-01 07:00:00 10.2 3 Nordeste 6 Nordeste 0 962.6 0.1 89
2020-04-01 06:00:00 10.1 0 Calma 5 Nordeste 0 962.4 -0.3 88
2020-04-01 05:00:00 10.2 0 Calma 5 Sur 0 962.4 -0.1 87
2020-04-01 04:00:00 10.8 0 Calma 8 Noroeste 0 962.5 0.1 87
2020-04-01 03:00:00 10.9 5 Noroeste 10 Noroeste 0 962.7 0.6 84
2020-04-01 02:00:00 11.6 2 Noroeste 6 Oeste 0 962.5 0.5 82
2020-04-01 01:00:00 11.6 0 Calma 5 Este 0 962.4 1.1 85
2020-04-01 00:00:00 11.6 0 Calma 6 Este 0 962.1 1.8 85
2020-03-31 23:00:00 11.8 0 Calma 6 Sudoeste 0.1 962 2.7 86
2020-03-31 22:00:00 12.4 3 Sudoeste 13 Sur 0 961.3 2.5 80
2020-03-31 21:00:00 12.4 5 Sudoeste 17 Sur 0.1 960.3 1.7 82
2020-03-31 20:00:00 13.3 4 Sur 24 Sudoeste 0.1 959.3 1.3 80
2020-03-31 19:00:00 14.4 6 Sur 21 Sudoeste 0.3 958.8 1.3 72
2020-03-31 18:00:00 12.4 6 Sur 29 Sur 1.2 958.6 0.9 89
2020-03-31 17:00:00 13.3 9 Sur 35 Sudeste 0.6 958 -0.2 86
2020-03-31 16:00:00 15.3 17 Sur 35 Sur 0 957.5 -0.5 69
2020-03-31 15:00:00 14.7 16 Sur 34 Sudeste 0 957.7 -0.2 71
2020-03-31 14:00:00 13.5 7 Sudeste 27 Sudeste 0.1 958.2 0.6 81
2020-03-31 13:00:00 13.2 6 Sur 30 Sur 0.3 958 0.7 79
2020-03-31 12:00:00 13.7 9 Sur 25 Sur 0 957.9 0.8 80
2020-03-31 11:00:00 11.7 4 Sur 14 Sur 0.3 957.6 1.5 90
2020-03-31 10:00:00 11.1 5 Oeste 12 Sur 2.8 957.3 1.3 91
2020-03-31 09:00:00 10.6 4 Sudeste 17 Sudeste 0 957.1 1.5 87
2020-03-31 08:00:00 10.4 4 Sur 19 Sudeste 0.1 956.1 0.1 88
2020-03-31 07:00:00 10.2 12 Sur 37 Sudoeste 1 956 -1.3 89
2020-03-31 06:00:00 10 10 Sur 42 Sur 0 955.6 -0.2 86
2020-03-31 05:00:00 10.1 17 Sudeste 46 Este 1.4 956 -1.2 86
2020-03-31 04:00:00 10.2 11 Sur 48 Sudeste 2.7 957.3 -0.8 90
2020-03-31 03:00:00 10.9 19 Sur 42 Sur 1.9 955.8 -3.1 88
2020-03-31 02:00:00 11.5 14 Sudeste 34 Sudeste 0.1 957.2 -2.4 87
2020-03-31 01:00:00 11.1 8 Sudeste 19 Sudeste 0.3 958.1 -1.2 87
2020-03-31 00:00:00 10.8 4 Nordeste 18 Este 0.2 958.9 -1 92
2020-03-30 23:00:00 11.6 2 Este 9 Este 0.3 959.6 -0.2 91
2020-03-30 22:00:00 12.1 5 Nordeste 14 Noroeste 0.1 959.3 -0.7 88
2020-03-30 21:00:00 13 3 Noroeste 11 Noroeste 0 959.9 -0.5 76
2020-03-30 20:00:00 13.9 0 Calma 5 Sudeste 0.1 959.8 -0.7 65
2020-03-30 19:00:00 13.9 0 Calma 12 Noroeste 0 960 -0.7 70
2020-03-30 18:00:00 14.4 4 Oeste 26 Sur 0 960.4 -1.2 68
2020-03-30 17:00:00 15.5 12 Sur 22 Sudeste 0 960.5 -1.9 57
2020-03-30 16:00:00 16.7 7 Sur 20 Sudeste 0 960.7 -2.5 50
2020-03-30 15:00:00 16.4 0 Calma 9 Sudoeste 0 961.6 -2.8 52
2020-03-30 14:00:00 15.9 2 Este 10 Nordeste 0 962.4 -2.2 58
2020-03-30 13:00:00 14.8 3 Este 11 Este 0 963.2 -1.3 68
2020-03-30 12:00:00 12.9 0 Calma 12 Este 0 964.4 -0.1 77
2020-03-30 11:00:00 12.1 2 Nordeste 10 Nordeste 0 964.6 0.1 83
2020-03-30 10:00:00 10.8 0 Calma 8 Nordeste 0 964.5 -0.1 88
2020-03-30 09:00:00 10.4 0 Calma 7 Este 0 964.5 -0.2 89
2020-03-30 08:00:00 10.1 0 Calma 4 Este 0 964.5 -1.2 89
2020-03-30 07:00:00 10.3 0 Calma 0 Calma 0 964.6 -1.4 86
2020-03-30 06:00:00 10.4 0 Calma -- -- 0 964.7 -2 81
2020-03-30 05:00:00 10.4 0 Calma -- -- 0 965.7 -1.2 81
2020-03-30 04:00:00 10.6 0 Calma 8 Noroeste 0 966 -1.4 81
2020-03-30 03:00:00 10.9 2 Nordeste 8 Nordeste 0 966.7 -1.1 79
2020-03-30 02:00:00 11.4 3 Nordeste 7 Nordeste 0 966.9 -1.1 77
2020-03-30 01:00:00 12.4 0 Calma 5 Sudoeste 0 967.4 -0.5 71
2020-03-30 00:00:00 13 0 Calma 4 Sudoeste 0 967.8 0.4 69
2020-03-29 23:00:00 13 0 Calma 4 Sudoeste 0 968 0.6 65
2020-03-29 22:00:00 13.7 0 Calma 8 Sudoeste 0 967.9 0.5 59
2020-03-29 21:00:00 14.4 0 Calma 11 Sur 0 967.4 0.1 57
2020-03-29 20:00:00 15.6 6 Sur 16 Sur 0 967.4 -0.2 51
2020-03-29 19:00:00 16.8 3 Sudoeste 17 Sudoeste 0 967.4 -0.7 44
2020-03-29 18:00:00 17.5 4 Sudoeste 17 Oeste 0 967.3 -1.5 42
2020-03-29 17:00:00 17.3 0 Calma 8 Sudoeste 0 967.6 -1.7 41
2020-03-29 16:00:00 17.3 0 Calma 12 Sudeste 0 968.1 -1.6 40
2020-03-29 15:00:00 16.9 2 Sudoeste 15 Sudeste 0 968.8 -1.5 41
2020-03-29 14:00:00 17.3 4 Este 15 Sudeste 0 969.3 -1.2 44
2020-03-29 13:00:00 15.5 4 Nordeste 12 Este 0 969.7 -0.6 51
2020-03-29 12:00:00 14.4 0 Calma 8 Sur 0 970.3 -0.1 57
2020-03-29 11:00:00 11.7 3 Este 8 Sudeste 0 970.5 0.8 72
2020-03-29 10:00:00 9.6 0 Calma 5 Este 0 970.3 0.7 81
2020-03-29 09:00:00 7.8 0 Calma 0 Calma 0 970.4 0.6 88
2020-03-29 08:00:00 8.1 0 Calma 6 Noroeste 0 969.7 -0.3 86
2020-03-29 07:00:00 9.1 2 Noroeste 7 Sudeste 0 969.6 -0.8 83
2020-03-29 06:00:00 9.9 4 Sudeste 12 Sudeste 0 969.8 -1.1 78
2020-03-29 05:00:00 10.2 4 Sudeste 19 Sur 0 970 -0.9 77
2020-03-29 03:00:00 10.3 9 Sur 23 Sur 0 970.9 0.2 80
2020-03-29 01:00:00 10.4 9 Sur 20 Sur 0 970.9 0.7 78
2020-03-29 00:00:00 10.2 6 Sur 19 Sur 0 971 1.3 78
2020-03-28 23:00:00 9.8 0 Calma 12 Sur 0 970.7 1.8 78
2020-03-28 22:00:00 10.2 2 Sur 13 Sur 0 970.2 1.9 77
2020-03-28 21:00:00 10.3 3 Sur 19 Sur 0 969.7 2 75
2020-03-28 20:00:00 10.8 5 Sur 19 Sudeste 0 968.9 1.7 72
2020-03-28 19:00:00 11.9 6 Sur 19 Sur 0 968.3 0.9 66
2020-03-28 18:00:00 12.9 5 Sur 24 Sur 0 967.7 0 63
2020-03-28 17:00:00 13.3 9 Sur 27 Sur 0 967.2 -0.7 63
2020-03-28 16:00:00 13.7 13 Sur 37 Sudeste 0 967.4 -0.4 63
2020-03-28 15:00:00 12.7 12 Sur 32 Sudeste 0 967.7 0.1 69
2020-03-28 14:00:00 12.7 15 Sur 28 Sur 0 967.9 0.4 70
2020-03-28 13:00:00 13.2 14 Sudeste 30 Sudeste 0 967.8 0.8 68
2020-03-28 12:00:00 14.3 12 Sudeste 27 Sudeste 0 967.6 0.9 65
2020-03-28 11:00:00 13.2 8 Sudeste 23 Sur 0 967.5 1.6 69
2020-03-28 10:00:00 11.3 2 Este 14 Sudeste 0 967 1.8 81
2020-03-28 09:00:00 8.8 5 Nordeste 12 Nordeste 0 966.7 1.8 87
2020-03-28 08:00:00 7.7 0 Calma 8 Sudoeste 0 965.9 1.3 93
2020-03-28 07:00:00 8.2 0 Calma 8 Noroeste 0 965.2 0.8 88
2020-03-28 06:00:00 8.3 3 Nordeste 7 Nordeste 0 964.9 0.4 89
2020-03-28 05:00:00 8.6 3 Nordeste 7 Nordeste 0 964.6 0.1 90
2020-03-28 04:00:00 8.3 4 Nordeste 12 Nordeste 0 964.4 -0.3 90
2020-03-28 03:00:00 8.5 0 Calma 5 Noroeste 0 964.5 0 87
2020-03-28 02:00:00 9.6 0 Calma -- -- -- 964.5 0.2 83
2020-03-28 01:00:00 10 0 Calma 20 Sur 0 964.7 1 82
2020-03-28 00:00:00 10.4 5 Sur 17 Sur 0 964.5 1.5 82
2020-03-27 23:00:00 10.5 0 Calma 6 Sur 0 964.3 2.1 81
2020-03-27 22:00:00 10.7 0 Calma 9 Sudoeste 0 963.7 2.1 79
2020-03-27 21:00:00 11.3 3 Sur 11 Sur 0 963 1.8 76
2020-03-27 20:00:00 11.9 5 Sur 21 Sur 0 962.2 1.6 72
2020-03-27 19:00:00 12.4 9 Sur 30 Sudeste 0 961.6 0.9 70
2020-03-27 18:00:00 13.3 12 Sudeste 30 Sur 0 961.2 0.1 67
2020-03-27 17:00:00 14.3 14 Sur 34 Sur 0 960.6 -0.6 63
2020-03-27 16:00:00 14.5 17 Sur 35 Sur 0 960.7 -0.8 63
2020-03-27 15:00:00 14.2 18 Sur 37 Sur 0 961.1 -0.8 62
2020-03-27 14:00:00 14.4 14 Sur 32 Sur 0 961.2 -0.5 59
2020-03-27 13:00:00 14.9 17 Sur 37 Sudeste 0 961.5 0.2 56
2020-03-27 12:00:00 14.3 18 Sur 34 Sudeste 0 961.9 1.2 58
2020-03-27 11:00:00 13.8 12 Sur 32 Sur 0 961.7 1.4 63
2020-03-27 10:00:00 12.9 12 Sur 35 Sur 0 961.3 1.4 70
2020-03-27 09:00:00 11.9 9 Sur 27 Sur 0 960.7 0.7 76
2020-03-27 08:00:00 10.9 8 Sur 27 Sudeste 0 960.3 0.3 81
2020-03-27 07:00:00 9.9 6 Sur 24 Sur 0 959.9 -0.3 85
2020-03-27 06:00:00 8.2 4 Oeste 9 Oeste 0 960 -0.9 87
2020-03-27 05:00:00 8.5 0 Calma 6 Noroeste 0 960 -1.4 86
2020-03-27 04:00:00 9.3 0 Calma -- -- 0 960.2 -1.5 83
2020-03-27 03:00:00 10 0 Calma 6 Oeste 0 960.9 -0.7 81
2020-03-27 02:00:00 10.5 0 Calma 10 Sudoeste 0 961.4 -0.3 79
2020-03-27 01:00:00 10.2 4 Nordeste 20 Oeste 0 961.7 0.1 80
2020-03-27 00:00:00 11.2 7 Oeste 24 Sudoeste 0 961.6 0.3 74
2020-03-26 23:00:00 11.7 6 Oeste 20 Sudoeste 0 961.7 1.1 72
2020-03-26 22:00:00 12.4 9 Oeste 30 Oeste 0 961.6 1 70
2020-03-26 21:00:00 13.3 10 Oeste 28 Oeste 0 961.3 0.9 68
2020-03-26 20:00:00 14.4 9 Oeste 28 Oeste 0 960.6 0.2 60
2020-03-26 19:00:00 16.3 12 Oeste 33 Sudoeste 0 960.6 -0.2 48
2020-03-26 18:00:00 17.6 13 Oeste 32 Oeste 0 960.4 -1 46
2020-03-26 17:00:00 18.6 13 Oeste 36 Noroeste 0 960.4 -1.4 44
2020-03-26 16:00:00 18.1 13 Oeste 32 Noroeste 0 960.8 -1.8 45
2020-03-26 15:00:00 17.5 15 Oeste 31 Oeste 0 961.4 -1.9 48
2020-03-26 14:00:00 17.7 13 Oeste 37 Oeste 0 961.8 -2 51
2020-03-26 13:00:00 16.4 11 Noroeste 27 Oeste 0 962.6 -1.3 58
2020-03-26 12:00:00 15 8 Noroeste 24 Noroeste 0 963.3 -0.6 65
2020-03-26 11:00:00 13.9 8 Noroeste 28 Noroeste 0 963.8 0 69
2020-03-26 10:00:00 12.1 0 Calma 10 Noroeste 0 963.9 0.2 83
2020-03-26 09:00:00 9.7 2 Nordeste 6 Sudoeste 0 963.9 0 93
2020-03-26 08:00:00 8.4 0 Calma 7 Sudoeste 0 963.8 -0.6 93
2020-03-26 07:00:00 8.9 0 Calma 10 Nordeste 0 963.7 -1.4 92
2020-03-26 06:00:00 8.9 0 Calma 10 Sudoeste 0.1 963.9 -1.8 93
2020-03-26 05:00:00 8.7 0 Calma 5 Sudoeste 0 964.4 -2.1 94
2020-03-26 04:00:00 8.4 0 Calma 3 Noroeste 0 965.1 -1.7 93
2020-03-26 03:00:00 8.3 0 Calma -- -- 0 965.7 -1.4 93
2020-03-26 02:00:00 8.3 0 Calma 4 Oeste 0 966.5 -0.9 92
2020-03-26 01:00:00 8.7 3 Noroeste 7 Sudoeste 0 966.8 -0.5 92
2020-03-26 00:00:00 8.9 3 Oeste 8 Sudoeste 0 967.1 0 91
2020-03-25 23:00:00 9.4 0 Calma 9 Sudoeste 0 967.4 0.6 91
2020-03-25 22:00:00 9.3 0 Calma 9 Sudoeste 0 967.3 0.9 92
2020-03-25 21:00:00 10 2 Sur 10 Sudoeste 0.8 967.1 0.7 89
2020-03-25 20:00:00 10.8 0 Calma 12 Sudeste 1.7 966.8 0.1 83
2020-03-25 19:00:00 11.4 0 Calma 15 Sudeste 0 966.4 -0.9 75
2020-03-25 18:00:00 12.4 8 Sudeste 19 Sudeste 0 966.4 -1.3 71
2020-03-25 17:00:00 12.6 6 Sudeste 19 Sudeste 0 966.7 -1.5 72
2020-03-25 16:00:00 11.3 9 Sur 21 Sudeste 0 967.3 -1.2 78
2020-03-25 15:00:00 10.5 4 Sudeste 9 Sudeste 0 967.7 -0.7 84
2020-03-25 14:00:00 9.7 3 Sudoeste 14 Sudeste 1.1 968.2 -0.1 89
2020-03-25 13:00:00 9.4 3 Sur 18 Sudoeste 1.1 968.5 0.8 89
2020-03-25 12:00:00 9.4 4 Sur 23 Sudoeste 0.2 968.4 1.3 88
2020-03-25 11:00:00 9.4 6 Sur 21 Sudoeste 1.2 968.3 1.6 89
2020-03-25 10:00:00 10 6 Sudeste 19 Sudeste 0.3 967.7 1.8 86
2020-03-25 09:00:00 10.4 4 Sur 14 Sudeste 0 967.1 1.4 87
2020-03-25 08:00:00 11.3 0 Calma 5 Noroeste 0 966.7 1.4 92
2020-03-25 07:00:00 11.3 0 Calma 5 Noroeste 0.1 965.9 0.9 92
2020-03-25 06:00:00 11.2 0 Calma 0 Calma 0 965.7 0.5 90
2020-03-25 05:00:00 11.4 0 Calma 2 Sudoeste 0 965.3 0.1 90
2020-03-25 04:00:00 11.3 0 Calma 5 Sudoeste 0.4 965 -0.2 90
2020-03-25 03:00:00 11.7 0 Calma 4 Noroeste 0 965.2 0.3 86
2020-03-25 02:00:00 11.7 0 Calma 6 Nordeste 0 965.2 0.8 87
2020-03-25 01:00:00 11.7 0 Calma 4 Sur 0 965.2 1.2 86
2020-03-25 00:00:00 11.8 0 Calma -- -- 0 964.9 1.7 84
2020-03-24 23:00:00 12 0 Calma 6 Sudoeste 0 964.4 2.5 83
2020-03-24 22:00:00 12.4 0 Calma 6 Sudeste 0 964 2.4 81
2020-03-24 21:00:00 12.2 0 Calma 6 Sudeste 0 963.2 2.4 83
2020-03-24 20:00:00 12.3 0 Calma 5 Sudoeste 0.2 961.9 1.5 83
2020-03-24 19:00:00 13.7 0 Calma 16 Sudoeste 0.3 961.6 1.3 75
2020-03-24 18:00:00 14.2 4 Sudoeste 19 Sudoeste 0 960.8 0.3 72
2020-03-24 17:00:00 14.7 3 Sudoeste 12 Sudoeste 0 960.4 -0.2 70
2020-03-24 16:00:00 15.2 0 Calma 11 Sur 0 960.3 -0.9 69
2020-03-24 15:00:00 15.1 4 Sudoeste 14 Sur 0 960.5 -0.6 67
2020-03-24 14:00:00 15.7 4 Sur 14 Sur 0 960.6 -0.3 66
2020-03-24 13:00:00 13.6 0 Calma 10 Sur 0 961.2 0.7 77
2020-03-24 12:00:00 12.7 0 Calma 7 Sudeste 0 961.1 0.5 77
2020-03-24 11:00:00 11.6 0 Calma 10 Noroeste 0 960.9 0.4 83
2020-03-24 10:00:00 9.9 0 Calma 5 Oeste 0 960.5 0.1 93
2020-03-24 09:00:00 9.3 0 Calma 7 Noroeste 0 960.6 0.3 94
2020-03-24 08:00:00 8.5 0 Calma 14 Noroeste 0.2 960.5 0.2 94
2020-03-24 07:00:00 8.6 0 Calma 15 Noroeste 1.2 960.4 -0.3 94
2020-03-24 06:00:00 8.4 8 Noroeste 11 Noroeste 0.6 960.3 -0.7 94
2020-03-24 05:00:00 8.4 0 Calma 6 Noroeste 0 960.3 -1.4 94
2020-03-24 04:00:00 8.6 0 Calma 5 Noroeste 0 960.7 -1.6 94
2020-03-24 03:00:00 8.5 3 Noroeste 6 Norte 0 961 -1.7 94
2020-03-24 02:00:00 8.4 0 Calma 3 Nordeste 0 961.7 -1.2 93
2020-03-24 01:00:00 8.7 3 Nordeste 13 Norte 0.8 962.3 -0.5 93
2020-03-24 00:00:00 8.5 4 Nordeste 12 Nordeste 0 962.7 -0.3 92
2020-03-23 23:00:00 8.6 6 Nordeste 17 Este 0 962.9 0.3 90
2020-03-23 22:00:00 8.6 9 Nordeste 14 Nordeste 0 962.8 -0.1 89
2020-03-23 21:00:00 8.8 5 Nordeste 10 Nordeste 0.1 963 0.4 92
2020-03-23 20:00:00 9.2 0 Calma 8 Sudeste 3.4 962.6 0.1 89
2020-03-23 19:00:00 9.6 3 Sudeste 9 Este 1.3 962.9 0.1 87
2020-03-23 18:00:00 10.4 0 Calma 15 Este 0 962.6 -0.2 78
2020-03-23 17:00:00 9.6 4 Este 25 Sudeste 0.5 962.5 -0.5 78
2020-03-23 16:00:00 10.4 11 Sur 23 Sudeste 0 962.8 -0.7 71
2020-03-23 15:00:00 12.1 9 Sudeste 24 Sudeste 0 962.8 -1.2 62
2020-03-23 14:00:00 13.6 10 Sudeste 24 Sudeste 0 963 -1.5 59
2020-03-23 13:00:00 14.1 8 Sudeste 21 Sudeste 0 963.5 -1.1 57
2020-03-23 12:00:00 12.4 0 Calma 12 Este 0 964 -0.3 62
2020-03-23 11:00:00 10.4 0 Calma 9 Este 0 964.5 0.5 85
2020-03-23 10:00:00 7.5 0 Calma 6 Sudeste 0 964.6 1.1 95
2020-03-23 09:00:00 5.7 0 Calma 7 Sudoeste 0 964.3 1 96
2020-03-23 08:00:00 5.1 0 Calma 3 Oeste 0 964 0.6 95
2020-03-23 07:00:00 5.3 0 Calma 5 Nordeste 0 963.5 0.2 95
2020-03-23 06:00:00 5.6 2 Nordeste 4 Nordeste 0 963.3 -0.2 95
2020-03-23 05:00:00 6 0 Calma 4 Noroeste 0 963.4 -0.6 94
2020-03-23 04:00:00 6.3 0 Calma 3 Nordeste 0 963.3 -0.8 94
2020-03-23 03:00:00 6.6 0 Calma 7 Nordeste 0 963.5 -0.7 93
2020-03-23 02:00:00 7.1 4 Nordeste 6 Nordeste 0 964 -0.4 92
2020-03-23 01:00:00 7.9 0 Calma 3 Oeste 0 964.1 0 88
2020-03-23 00:00:00 8.2 0 Calma 0 Calma 0 964.2 0.5 88
2020-03-22 23:00:00 8.9 0 Calma 2 Oeste 0 964.4 1.2 88
2020-03-22 22:00:00 9.2 0 Calma 3 Noroeste 0 964.1 1.3 88
2020-03-22 21:00:00 9.3 0 Calma 4 Sur 0 963.7 1.5 88
2020-03-22 20:00:00 10 0 Calma -- -- 0 963.2 1.3 86
2020-03-22 19:00:00 9.9 0 Calma 8 Sur 0 962.8 1.1 82
2020-03-22 18:00:00 10.3 0 Calma 18 Sudoeste 0.9 962.2 0.1 81
2020-03-22 17:00:00 11.5 2 Sur 7 Este 0 961.9 -0.1 69
2020-03-22 16:00:00 10.8 0 Calma 15 Noroeste 0.9 961.7 -0.4 74
2020-03-22 15:00:00 10.2 8 Noroeste 19 Oeste 0.5 962.1 -0.5 80
2020-03-22 14:00:00 11 8 Noroeste 23 Noroeste 0.1 962 -0.6 70
2020-03-22 13:00:00 12.9 4 Sur 14 Sudeste 0 962.1 -0.3 52
2020-03-22 12:00:00 11.6 2 Sudeste 7 Sur 0 962.6 0.5 64
2020-03-22 11:00:00 10.2 0 Calma 6 Sudeste 0 962.6 1.1 75
2020-03-22 10:00:00 9.6 0 Calma 7 Oeste 0 962.4 1 82
2020-03-22 09:00:00 8.7 4 Oeste 9 Oeste 0 962.1 0.9 88
2020-03-22 08:00:00 7.6 0 Calma 7 Noroeste 0 961.5 0.3 90
2020-03-22 07:00:00 7.8 0 Calma 4 Noroeste 0 961.4 0 90
2020-03-22 06:00:00 7.7 0 Calma 12 Este 0 961.2 -0.4 89
2020-03-22 05:00:00 7.9 0 Calma 15 Sudeste 0.3 961.2 -0.5 89
2020-03-22 04:00:00 7.9 7 Sur 18 Sudeste 0.1 961.4 -1.3 88
2020-03-22 03:00:00 8.5 3 Noroeste 6 Noroeste 0.1 961.6 -1.5 93
2020-03-22 02:00:00 8.6 0 Calma 5 Sudoeste 0.2 961.7 -1.5 92
2020-03-22 01:00:00 8.2 0 Calma 5 Oeste 0 962.7 -0.7 92
2020-03-22 00:00:00 8.2 0 Calma 7 Nordeste 0 963.1 -0.2 89
2020-03-21 23:00:00 7.9 0 Calma 2 Nordeste 0 963.2 0.3 92
2020-03-21 22:00:00 7.9 0 Calma 12 Noroeste 0 963.4 1.4 92
2020-03-21 21:00:00 7.6 0 Calma 15 Sur 0.4 963.3 1.3 92
2020-03-21 20:00:00 7.7 4 Sudoeste 25 Sur 2.9 962.9 0.2 88
2020-03-21 19:00:00 10 11 Sudeste 24 Sur 0 962 -1.1 80
2020-03-21 18:00:00 9.9 6 Sur 15 Sudeste 0.5 962 -1.1 84
2020-03-21 17:00:00 10.3 2 Oeste 10 Oeste 0.4 962.7 -0.8 86
2020-03-21 16:00:00 10.4 0 Calma 16 Sur 0.6 963.1 -1 83
2020-03-21 15:00:00 11.2 5 Sur 26 Sur 1.1 963.1 -1.7 75
2020-03-21 14:00:00 13 5 Sur 18 Sur 0.6 963.5 -1.8 64
2020-03-21 13:00:00 13.5 6 Sur 19 Sudeste 0 964.1 -1.2 55
2020-03-21 12:00:00 12.4 4 Sur 15 Sudeste 0 964.8 -0.6 56
2020-03-21 11:00:00 11.2 3 Sur 14 Sur 0 965.3 0.2 64
2020-03-21 10:00:00 9.8 0 Calma 9 Este 0 965.3 0.6 80
2020-03-21 09:00:00 8.7 0 Calma 3 Sudeste 0 965.4 0.9 94
2020-03-21 08:00:00 7.9 0 Calma 5 Nordeste 0 965.1 0.7 94
2020-03-21 07:00:00 7.9 3 Nordeste 7 Nordeste 0 964.7 0.2 94
2020-03-21 06:00:00 8.6 0 Calma 5 Este 0.5 964.5 0.6 94
2020-03-21 05:00:00 8.8 0 Calma 13 Sudoeste 4.3 964.4 0.7 94
2020-03-21 04:00:00 9 6 Oeste 24 Oeste 10.6 964.5 0.4 94
2020-03-21 03:00:00 11 9 Sur 30 Sudeste 1.6 963.9 -0.8 92
2020-03-21 02:00:00 11.9 13 Sudeste 29 Este 0 963.7 -1.5 79
2020-03-21 01:00:00 12.2 15 Sudeste 46 Este 0 964.1 -1 77
2020-03-21 00:00:00 11.9 15 Sudeste 31 Sur 0.1 964.7 -0.1 86
2020-03-20 23:00:00 11.8 15 Sudeste 38 Sudeste 0 965.2 0.2 83
2020-03-20 22:00:00 12.3 24 Sudeste 53 Sur 0 965.1 0.7 80
2020-03-20 21:00:00 12.2 19 Sudeste 50 Sur 0 964.8 0.9 81
2020-03-20 20:00:00 12.7 15 Sudeste 40 Sudeste 0 965 0.6 75
2020-03-20 19:00:00 14.5 17 Sudeste 35 Sudeste 0 964.4 -0.4 58
2020-03-20 18:00:00 15.6 8 Sur 30 Sur 0 963.9 -1.3 56
2020-03-20 17:00:00 16 7 Sur 25 Sur 0 964.4 -1.5 56
2020-03-20 16:00:00 16.2 9 Sur 25 Sudeste 0 964.8 -1.6 57
2020-03-20 15:00:00 16.3 5 Sur 27 Sur 0 965.2 -1.3 58
2020-03-20 14:00:00 14.2 14 Sudeste 32 Sudeste 0 965.9 -0.6 65
2020-03-20 13:00:00 14.6 14 Sudeste 38 Sudeste 0 966.4 -0.1 64
2020-03-20 12:00:00 14.5 13 Sur 40 Sudeste 0 966.5 0.3 64
2020-03-20 11:00:00 13.1 19 Sur 39 Sur 0 966.5 0.6 68
2020-03-20 10:00:00 12.6 10 Sur 32 Sudoeste 0 966.5 0.8 72
2020-03-20 09:00:00 11.9 12 Sur 33 Sudeste 0 966.2 0.6 78
2020-03-20 08:00:00 11.6 6 Sur 26 Sur 0 965.9 0.4 81
2020-03-20 07:00:00 11.1 3 Este 14 Este 0 965.7 0.1 83
2020-03-20 06:00:00 10.3 0 Calma 18 Sudeste 0 965.6 -0.4 82
2020-03-20 05:00:00 10.4 5 Sudeste 22 Sudeste 0 965.5 -1.1 81
2020-03-20 04:00:00 10.8 9 Sudeste 29 Sur 0 965.6 -1.4 78
2020-03-20 03:00:00 11.8 8 Sur 34 Sur 0 966 -1.2 75
2020-03-20 02:00:00 12.2 13 Sudeste 33 Sur 0 966.6 -0.4 78
2020-03-20 01:00:00 12.5 10 Sur 41 Sur 0 967 -0.2 81
2020-03-20 00:00:00 12.6 9 Sur 34 Sur 0 967.2 0.2 81
2020-03-19 23:00:00 12.5 15 Sudeste 36 Sur 0 967 0.5 80
2020-03-19 22:00:00 12.4 12 Sudeste 28 Sur 0 967.2 0.8 79
2020-03-19 21:00:00 12.5 11 Sudeste 32 Sudeste 0 967 0.5 77
2020-03-19 20:00:00 12.8 10 Sudeste 35 Sudeste 0 966.5 -0.3 74
2020-03-19 19:00:00 13.6 16 Sudeste 31 Sudeste 0 966.4 -0.9 69
2020-03-19 18:00:00 14.1 14 Sudeste 31 Sudeste 0 966.5 -1.2 68
2020-03-19 17:00:00 15.2 13 Sudeste 31 Sudeste 0 966.8 -1.4 65
2020-03-19 16:00:00 15.7 13 Sudeste 30 Sudeste 0 967.3 -1.7 64
2020-03-19 15:00:00 15.4 8 Sudeste 35 Sudeste 0 967.7 -1.9 63
2020-03-19 14:00:00 15.2 18 Sudeste 39 Sudeste 0 968.2 -1.6 65
2020-03-19 13:00:00 15 16 Sudeste 35 Sudeste 0 969 -0.9 68
2020-03-19 12:00:00 14.2 14 Sudeste 32 Sudeste 0 969.6 -0.1 70
2020-03-19 11:00:00 14.5 12 Sudeste 30 Sudeste 0 969.8 0.1 69
2020-03-19 10:00:00 13.1 11 Sudeste 29 Sudeste 0 969.9 0 76
2020-03-19 09:00:00 12.3 10 Este 26 Este 0 969.7 0.1 82
2020-03-19 08:00:00 11.4 6 Este 13 Este 0 969.7 0 86
2020-03-19 07:00:00 11.5 5 Este 13 Este 0 969.9 -0.1 82
2020-03-19 06:00:00 11.6 6 Este 19 Sudeste 0 969.6 -0.7 81
2020-03-19 05:00:00 12.3 10 Sur 22 Sur 0 969.7 -0.8 76
2020-03-19 04:00:00 12.4 8 Sur 31 Sur 0 970 -0.5 76
2020-03-19 03:00:00 12.4 9 Sur 29 Sudeste 0 970.3 -0.1 79
2020-03-19 02:00:00 12.6 12 Sur 27 Sudeste 0 970.5 -0.5 78
2020-03-19 01:00:00 12.6 11 Sur 39 Sur 0 970.5 -0.6 80
2020-03-19 00:00:00 12.7 17 Sur 42 Sur 0 970.4 0.2 80
2020-03-18 23:00:00 13 13 Sur 30 Sudeste 0 971 1.2 80
2020-03-18 22:00:00 12.7 3 Sur 31 Sur 0 971.1 1.8 79
2020-03-18 21:00:00 13 9 Sur 28 Sur 0 970.2 1.2 76
2020-03-18 20:00:00 13.7 2 Oeste 21 Sudoeste 0 969.8 0.7 67
2020-03-18 19:00:00 14.6 8 Sur 37 Sur 0 969.3 -0.3 64
2020-03-18 18:00:00 15.7 17 Sur 40 Sur 0 969 -1.2 59
2020-03-18 17:00:00 16.9 17 Sur 45 Sur 0 969.1 -1.6 53
2020-03-18 16:00:00 18 15 Sur 33 Sudeste 0 969.6 -1.5 53
2020-03-18 15:00:00 17.5 12 Sur 36 Sudeste 0 970.2 -1.5 55
2020-03-18 14:00:00 17.6 12 Sur 36 Sur 0 970.7 -1 57
2020-03-18 13:00:00 17 18 Sur 35 Sur 0 971.1 -0.2 58
2020-03-18 12:00:00 16.3 14 Sudeste 31 Sudeste 0 971.7 1.2 63
2020-03-18 11:00:00 15.1 10 Sur 32 Sudeste 0 971.7 1.8 69
2020-03-18 10:00:00 13.9 15 Sudeste 30 Sur 0 971.3 1.9 75
2020-03-18 09:00:00 13.2 11 Sudeste 27 Sudeste 0.1 970.5 0.7 81
2020-03-18 08:00:00 12 7 Sudeste 19 Este 0 969.9 0.4 89
2020-03-18 07:00:00 7.8 0 Calma 10 Nordeste 0 969.4 -0.3 94
2020-03-18 06:00:00 8.5 0 Calma 6 Nordeste 0 969.8 -0.4 93
2020-03-18 05:00:00 8.6 0 Calma 6 Nordeste 0 969.5 -0.5 92
2020-03-18 04:00:00 9.9 0 Calma 5 Oeste 0 969.7 -0.9 88
2020-03-18 03:00:00 10.6 0 Calma 18 Norte 0 970.2 -0.5 87
2020-03-18 02:00:00 11.4 5 Sudeste 24 Sudeste 0 970 0.3 86
2020-03-18 01:00:00 10.9 0 Calma 8 Noroeste 0 970.6 0.4 86
2020-03-18 00:00:00 10.5 0 Calma 14 Sur 0 970.7 0.1 86
2020-03-17 23:00:00 8.7 3 Oeste 6 Noroeste 0 969.7 -0.7 87
2020-03-17 22:00:00 9.7 3 Nordeste 5 Nordeste 0 970.2 -0.1 83
2020-03-17 21:00:00 10.8 0 Calma 6 Noroeste 0 970.6 0.8 81
2020-03-17 20:00:00 11.9 0 Calma 6 Sudoeste 0 970.4 0.8 70
2020-03-17 19:00:00 12.2 0 Calma 12 Sudoeste 0 970.3 0.2 65
2020-03-17 18:00:00 12.9 4 Sur 23 Este 0 969.8 -0.1 59
2020-03-17 17:00:00 14.5 13 Este 30 Este 0 969.6 -0.7 46
2020-03-17 16:00:00 13.8 13 Sudeste 32 Sur 0 970.1 -0.9 51
2020-03-17 15:00:00 14 14 Sudeste 39 Sudeste 0 969.9 -1.4 46
2020-03-17 14:00:00 12.7 8 Sudeste 35 Sudeste 0 970.3 -0.4 63
2020-03-17 13:00:00 10.5 12 Sudeste 22 Sur 0.3 971 0.4 77
2020-03-17 12:00:00 9.6 14 Este 43 Este 0.2 971.3 1.7 74
2020-03-17 11:00:00 9.4 13 Este 35 Este 0 970.7 1.6 78
2020-03-17 10:00:00 7.7 7 Nordeste 14 Nordeste 0 970.6 2.2 88
2020-03-17 09:00:00 7.1 5 Oeste 15 Sudoeste 0.1 969.6 2 90
2020-03-17 08:00:00 6.6 0 Calma 10 Noroeste 0.1 969.1 1.8 90
2020-03-17 07:00:00 6.2 5 Noroeste 14 Noroeste 0 968.4 1.1 89
2020-03-17 06:00:00 6.5 0 Calma 7 Norte 0 967.6 0.1 90
2020-03-17 05:00:00 6.1 0 Calma 7 Nordeste 0 967.3 -0.3 92
2020-03-17 04:00:00 6.4 0 Calma 8 Noroeste 0.6 967.3 -0.2 92
2020-03-17 03:00:00 6.9 0 Calma 8 Nordeste 0.1 967.5 -0.2 82
2020-03-17 02:00:00 6 4 Nordeste 10 Sudeste 0 967.6 -0.5 87
2020-03-17 01:00:00 6.7 0 Calma 5 Norte 0 967.5 -0.3 77
2020-03-17 00:00:00 6.8 0 Calma 5 Este 0 967.7 0.6 83
2020-03-16 23:00:00 7.4 0 Calma 16 Oeste 0 968.1 1.8 78
2020-03-16 22:00:00 8.5 0 Calma 14 Noroeste 0 967.8 2.5 65
2020-03-16 21:00:00 9 0 Calma 12 Nordeste 0 967.1 1.9 60
2020-03-16 20:00:00 9.3 3 Norte 24 Noroeste 0 966.3 1 53
2020-03-16 19:00:00 11 9 Noroeste 22 Oeste 0 965.3 0.1 45
2020-03-16 18:00:00 11.5 9 Noroeste 27 Noroeste 0 965.2 -0.1 44
2020-03-16 17:00:00 11.5 14 Oeste 33 Oeste 0 965.3 -0.1 42
2020-03-16 16:00:00 12.1 16 Oeste 38 Noroeste 0 965.2 -0.9 42
2020-03-16 15:00:00 12.7 17 Oeste 36 Oeste 0 965.3 -0.7 41
2020-03-16 14:00:00 12.3 19 Noroeste 33 Noroeste 0 965.4 -1.4 42
2020-03-16 13:00:00 11.5 14 Noroeste 31 Noroeste 0 966.1 -0.8 41
2020-03-16 12:00:00 10.4 9 Noroeste 22 Oeste 0 966 -0.8 46
2020-03-16 11:00:00 9.7 10 Noroeste 21 Noroeste 0 966.8 0.3 56
2020-03-16 10:00:00 9.2 3 Norte 17 Noroeste 0 966.9 1.1 57
2020-03-16 09:00:00 7.6 12 Noroeste 18 Noroeste 0 966.8 1.3 68
2020-03-16 08:00:00 7.8 5 Noroeste 14 Noroeste 0 966.5 2 68
2020-03-16 07:00:00 8.3 0 Calma 14 Noroeste 0.1 965.8 1.8 75
2020-03-16 06:00:00 8.9 4 Noroeste 22 Oeste 0 965.5 0.8 76
2020-03-16 05:00:00 9.8 7 Noroeste 28 Noroeste 0 964.5 -0.8 81
2020-03-16 04:00:00 11.7 4 Oeste 8 Oeste 0 964 -1.4 89
2020-03-16 03:00:00 11.5 0 Calma 6 Sudeste 0 964.7 -1.1 89
2020-03-16 02:00:00 11.6 0 Calma 8 Sur 0 965.3 -0.8 89
2020-03-16 01:00:00 11.5 0 Calma 7 Oeste 0 965.4 -0.9 89
2020-03-16 00:00:00 11.7 2 Oeste 7 Sudoeste 0 965.8 0.2 87
2020-03-15 23:00:00 12.4 0 Calma 9 Sudoeste 0 966.1 1.2 83
2020-03-15 22:00:00 12.8 0 Calma 6 Sur 0 966.3 1.3 82
2020-03-15 21:00:00 13.9 0 Calma 6 Oeste 0 965.6 0.2 74
2020-03-15 20:00:00 14.5 0 Calma 18 Sudeste 0 964.9 -1 69
2020-03-15 19:00:00 15.7 9 Sudeste 23 Sudeste 0 965 -0.9 65
2020-03-15 18:00:00 16.4 10 Sur 26 Sudeste 0 965.4 -1.2 64
2020-03-15 17:00:00 16.7 10 Sudeste 27 Sudeste 0 965.9 -1.6 59
2020-03-15 16:00:00 17.6 15 Sudeste 30 Sudeste 0 965.9 -2.4 56
2020-03-15 15:00:00 16.8 12 Sudeste 32 Sudeste 0 966.6 -2 62
2020-03-15 14:00:00 15.9 10 Sudeste 27 Sudeste 0 967.5 -1.3 64
2020-03-15 13:00:00 14.6 12 Sudeste 30 Sudeste 0 968.3 -0.6 74
2020-03-15 12:00:00 15.7 13 Sudeste 32 Sudeste 0 968.6 0.2 68
2020-03-15 11:00:00 14.8 7 Sur 32 Sudeste 0 968.8 0.6 69
2020-03-15 10:00:00 14 11 Sudeste 28 Sur 0 968.9 1 74
2020-03-15 09:00:00 13 0 Calma 10 Oeste 0 968.4 0.2 81
2020-03-15 08:00:00 11.8 2 Sudoeste 12 Este 0 968.2 0 84
2020-03-15 07:00:00 11.8 0 Calma 9 Noroeste 0 967.9 -0.5 84
2020-03-15 06:00:00 12 0 Calma 23 Sudeste 0 968.2 -0.7 86
2020-03-15 05:00:00 12.4 15 Sudeste 41 Sudeste 0 968.2 -1.1 85
2020-03-15 04:00:00 12.2 16 Sur 42 Sudeste 0 968.4 -1 88
2020-03-15 03:00:00 11.9 5 Sur 23 Sur 0 968.9 -0.8 86
2020-03-15 02:00:00 12 0 Calma 18 Sur 0 969.3 -0.5 77
2020-03-15 01:00:00 12.7 4 Sur 16 Sudoeste 0 969.4 -0.1 78
2020-03-15 00:00:00 13.2 4 Sur 19 Sudoeste 0 969.7 0.6 78
2020-03-14 23:00:00 13.6 0 Calma 11 Sudeste 0 969.8 0.9 72
2020-03-14 22:00:00 13.7 0 Calma 5 Sudoeste 0 969.5 0.9 71
2020-03-14 21:00:00 15.1 0 Calma 14 Sudeste 0 969.1 0.7 65
2020-03-14 20:00:00 16.2 4 Sur 18 Sudeste 0 968.9 0.6 60
2020-03-14 19:00:00 18 7 Sudeste 19 Sudeste 0 968.6 -0.1 53
2020-03-14 18:00:00 20.1 9 Sudeste 22 Sudeste 0 968.4 -0.6 47
2020-03-14 17:00:00 20.9 10 Sudeste 22 Sudeste 0 968.3 -1.5 46
2020-03-14 16:00:00 21.6 9 Sudeste 23 Sudeste 0 968.7 -1.9 45
2020-03-14 15:00:00 21.5 9 Sudeste 22 Este 0 969 -1.9 46
2020-03-14 14:00:00 20.9 8 Sudeste 23 Sudeste 0 969.8 -1.6 47
2020-03-14 13:00:00 20.2 7 Sudeste 21 Sudeste 0 970.6 -0.9 50
2020-03-14 12:00:00 17.7 0 Calma 12 Sudeste 0 970.9 -0.2 57
2020-03-14 11:00:00 15.8 3 Sudeste 11 Sudeste 0 971.4 0.6 69
2020-03-14 10:00:00 13.2 2 Sudeste 7 Sudeste 0 971.5 0.9 80
2020-03-14 09:00:00 9.6 0 Calma 0 Calma 0 971.1 0.9 87
2020-03-14 08:00:00 7.8 0 Calma 7 Sudeste 0 970.8 1 91
2020-03-14 07:00:00 9.8 4 Noroeste 7 Noroeste 0 970.6 0.8 93
2020-03-14 06:00:00 9.4 0 Calma 3 Sudoeste 0 970.2 -0.1 89
2020-03-14 05:00:00 8.5 0 Calma 5 Sudoeste 0 969.8 -0.4 84
2020-03-14 04:00:00 10.9 0 Calma 4 Sur 0 969.8 -0.6 81
2020-03-14 03:00:00 11.5 0 Calma 6 Sudoeste 0 970.3 -0.1 77
2020-03-14 02:00:00 12 0 Calma 4 Sudoeste 0 970.2 -0.1 74
2020-03-14 01:00:00 12.6 0 Calma 4 Sudoeste 0 970.4 0.6 69
2020-03-14 00:00:00 13.3 0 Calma 3 Sudoeste 0 970.4 1 66
2020-03-13 23:00:00 13.9 0 Calma 8 Sur 0 970.3 1.5 64
2020-03-13 22:00:00 14.8 2 Sudoeste 6 Sudoeste 0 969.8 1.3 62
2020-03-13 21:00:00 16.6 0 Calma 6 Noroeste 0 969.4 1.5 58
2020-03-13 20:00:00 17.8 3 Noroeste 13 Noroeste 0 968.8 1 54
2020-03-13 19:00:00 19.7 8 Noroeste 17 Noroeste 0 968.5 0.6 48
2020-03-13 18:00:00 21.2 9 Noroeste 21 Noroeste 0 967.9 -0.2 44
2020-03-13 17:00:00 21.4 9 Noroeste 23 Noroeste 0 967.8 -0.9 44
2020-03-13 16:00:00 21.9 8 Noroeste 18 Noroeste 0 967.9 -1.4 42
2020-03-13 15:00:00 22 5 Noroeste 18 Noroeste 0 968.1 -1.5 44
2020-03-13 14:00:00 20.8 5 Oeste 15 Noroeste 0 968.7 -1.1 43
2020-03-13 13:00:00 19.7 4 Noroeste 17 Noroeste 0 969.3 -0.5 46
2020-03-13 12:00:00 18.3 6 Noroeste 17 Noroeste 0 969.6 0 54
2020-03-13 11:00:00 16.1 3 Noroeste 9 Noroeste 0 969.8 0.8 63
2020-03-13 10:00:00 12.3 0 Calma 5 Noroeste 0 969.8 0.9 80
2020-03-13 09:00:00 8.9 0 Calma 2 Nordeste 0 969.6 0.9 92
2020-03-13 08:00:00 8.9 0 Calma -- -- 0 969 0.1 90
2020-03-13 07:00:00 9.3 0 Calma 8 Noroeste 0 968.9 -0.1 89
2020-03-13 06:00:00 10.2 0 Calma 4 Oeste 0 968.7 -0.6 87
2020-03-13 05:00:00 11 0 Calma 6 Sudoeste 0 968.9 -0.9 88
2020-03-13 04:00:00 11.9 0 Calma 5 Oeste 0 969 -1 84
2020-03-13 03:00:00 13 0 Calma 3 Nordeste 0 969.3 -0.9 83
2020-03-13 02:00:00 13.9 0 Calma 10 Nordeste 0 969.8 -0.3 79
2020-03-13 01:00:00 14.4 3 Este 12 Nordeste 0 970 0 77
2020-03-13 00:00:00 15.7 9 Nordeste 15 Nordeste 0 970.2 0.4 74
2020-03-12 23:00:00 15.9 3 Nordeste 8 Este 0 970.1 1.1 74
2020-03-12 22:00:00 17.3 0 Calma 13 Noroeste 0 970 1.4 69
2020-03-12 21:00:00 18.3 9 Noroeste 17 Noroeste 0 969.8 1.3 64
2020-03-12 20:00:00 21.1 2 Noroeste 10 Noroeste 0 969 0.4 51
2020-03-12 19:00:00 24 3 Oeste 12 Sudeste 0 968.6 -0.2 41
2020-03-12 18:00:00 25.7 2 Sur 17 Sudeste 0 968.5 -0.9 32
2020-03-12 17:00:00 25.6 6 Sudeste 23 Sudeste 0 968.6 -1.5 32
2020-03-12 16:00:00 26.4 11 Sudeste 26 Sudeste 0 968.8 -2.3 30
2020-03-12 15:00:00 26.3 8 Sur 28 Sur 0 969.4 -2.1 32
2020-03-12 14:00:00 25.5 13 Sur 27 Sur 0 970.1 -1.6 32
2020-03-12 13:00:00 25.3 8 Sur 32 Sur 0 971.1 -0.4 33
2020-03-12 12:00:00 24.8 11 Sur 26 Sudeste 0 971.5 0.3 35
2020-03-12 11:00:00 23.4 5 Sudeste 18 Sudeste 0 971.7 0.6 38
2020-03-12 10:00:00 21.6 5 Sudeste 25 Sudeste 0 971.5 0.8 40
2020-03-12 09:00:00 18.1 0 Calma 9 Nordeste 0 971.2 0.6 45
2020-03-12 08:00:00 16.3 0 Calma 14 Noroeste 0 971.1 0.4 45
2020-03-12 07:00:00 17.2 4 Noroeste 21 Este 0 970.7 -0.5 44
2020-03-12 06:00:00 18.2 6 Este 17 Sudeste 0 970.6 -1.1 42
2020-03-12 05:00:00 17.8 8 Este 18 Sudeste 0 970.7 -1.3 42
2020-03-12 04:00:00 16.1 5 Este 26 Sudeste 0 971.2 -1.1 46
2020-03-12 03:00:00 16.8 10 Sudeste 25 Sudeste 0 971.7 -0.8 45
2020-03-12 02:00:00 16.7 3 Sudoeste 12 Sudoeste 0 972 -0.7 44
2020-03-12 01:00:00 17.7 0 Calma 14 Sudeste 0 972.3 -0.3 41
2020-03-12 00:00:00 18.3 2 Sudeste 11 Sudeste 0 972.5 0.2 41
2020-03-11 23:00:00 19.1 4 Sudeste 11 Sudeste 0 972.7 0.3 40
2020-03-11 22:00:00 19.7 4 Sudeste 17 Sudeste 0 972.6 0.3 39
2020-03-11 21:00:00 20.9 6 Sudeste 17 Sudeste 0 972.3 0.1 38
2020-03-11 20:00:00 21.2 3 Sudoeste 10 Sudoeste 0 972.4 0 36
2020-03-11 19:00:00 23.6 7 Sudeste 19 Sur 0 972.3 -0.3 33
2020-03-11 18:00:00 25.4 5 Sudoeste 22 Sudeste 0 972.2 -0.6 32
2020-03-11 17:00:00 24.9 9 Sudeste 27 Sudeste 0 972.4 -1.3 32
2020-03-11 16:00:00 25.5 15 Sur 40 Sudeste 0 972.6 -2 32
2020-03-11 15:00:00 25.6 18 Sudeste 44 Sudeste 0 972.8 -2.4 32
2020-03-11 14:00:00 25.7 12 Sudeste 39 Sudeste 0 973.7 -1.7 33
2020-03-11 13:00:00 24.8 14 Sudeste 37 Sudeste 0 974.6 -0.8 34
2020-03-11 12:00:00 24 15 Sudeste 34 Sudeste 0 975.2 0.1 36
2020-03-11 11:00:00 22 8 Sudeste 25 Sudeste 0 975.4 0.7 44
2020-03-11 10:00:00 14 0 Calma 6 Sudeste 0 975.4 0.4 64
2020-03-11 09:00:00 8.8 0 Calma 4 Sudeste 0 975.1 0.1 72
2020-03-11 08:00:00 7.4 0 Calma 6 Oeste 0 974.7 -0.3 74
2020-03-11 07:00:00 7.7 0 Calma 8 Nordeste 0 975 -0.3 71
2020-03-11 06:00:00 8.4 2 Nordeste 5 Nordeste 0 975 -0.4 66
2020-03-11 05:00:00 10.4 0 Calma 8 Noroeste 0 975 -0.9 58
2020-03-11 04:00:00 10.1 0 Calma 7 Noroeste 0 975.3 -1 58
2020-03-11 03:00:00 11 0 Calma 9 Sudoeste 0 975.4 -1.5 57
2020-03-11 02:00:00 11.9 0 Calma 8 Sudoeste 0 975.9 -0.9 55
2020-03-11 01:00:00 12 0 Calma 8 Sudoeste 0 976.3 -0.8 54
2020-03-11 00:00:00 12.6 2 Sudoeste 9 Sudoeste 0 976.9 -0.1 53
2020-03-10 23:00:00 13.1 0 Calma 8 Sudoeste 0 976.8 -0.1 52
2020-03-10 22:00:00 13.5 2 Sudoeste 8 Sudoeste 0 977.1 0.5 51
2020-03-10 21:00:00 14.9 0 Calma 13 Sudeste 0 977 0.5 47
2020-03-10 20:00:00 16.3 5 Sur 15 Sudeste 0 976.9 0.4 45
2020-03-10 19:00:00 18.1 5 Sur 22 Sudeste 0 976.6 0.2 42
2020-03-10 18:00:00 19.7 11 Sudeste 25 Sudeste 0 976.5 -0.5 39
2020-03-10 17:00:00 20.4 14 Sudeste 25 Sudeste 0 976.5 -0.8 38
2020-03-10 16:00:00 22.1 12 Sudeste 30 Sudeste 0 976.4 -1.2 35
2020-03-10 15:00:00 21.8 13 Sudeste 32 Sudeste 0 977 -0.8 35
2020-03-10 14:00:00 21.7 14 Sur 32 Sudeste 0 977.3 -0.5 35
2020-03-10 13:00:00 22.1 13 Sur 29 Sudeste 0 977.6 -0.1 35
2020-03-10 12:00:00 20.3 3 Sur 11 Sudeste 0 977.8 1 39
2020-03-10 11:00:00 16.7 2 Este 8 Sudeste 0 977.8 1.5 50
2020-03-10 10:00:00 12.5 0 Calma 10 Nordeste 0 977.7 1.9 64
2020-03-10 09:00:00 8.4 0 Calma 8 Sudoeste 0 976.8 0.8 75
2020-03-10 08:00:00 8.5 3 Nordeste 8 Nordeste 0 976.3 0.6 76
2020-03-10 07:00:00 6.2 0 Calma 6 Sudeste 0 975.8 0.1 79
2020-03-10 06:00:00 7.1 0 Calma 6 Nordeste 0 976 -0.4 76
2020-03-10 05:00:00 8.7 0 Calma 9 Noroeste 0 975.7 -0.8 71
2020-03-10 04:00:00 8.6 2 Noroeste 9 Noroeste 0 975.7 -1.2 73
2020-03-10 03:00:00 8.4 0 Calma 7 Nordeste 0 976.4 -0.3 71
2020-03-10 02:00:00 9.4 3 Nordeste 11 Noroeste 0 976.5 -0.4 68
2020-03-10 01:00:00 12 0 Calma 8 Noroeste 0 976.9 0.7 62
2020-03-10 00:00:00 11.5 0 Calma 10 Noroeste 0 976.7 0.7 60
2020-03-09 23:00:00 14.4 0 Calma 8 Nordeste 0 976.9 1.2 51
2020-03-09 22:00:00 13.1 0 Calma 7 Noroeste 0 976.2 0.6 50
2020-03-09 21:00:00 15.2 5 Noroeste 11 Norte 0 976 0.9 45
2020-03-09 20:00:00 16.3 3 Norte 14 Noroeste 0 975.7 0.4 44
2020-03-09 19:00:00 18.2 8 Noroeste 20 Noroeste 0 975.6 0.2 40
2020-03-09 18:00:00 19.1 3 Nordeste 17 Noroeste 0 975.1 -0.8 36
2020-03-09 17:00:00 19.6 4 Norte 21 Noroeste 0 975.3 -1.5 35
2020-03-09 16:00:00 20.6 8 Norte 24 Noroeste 0 975.4 -2.1 34
2020-03-09 15:00:00 20.5 9 Noroeste 22 Noroeste 0 975.9 -2.2 34
2020-03-09 14:00:00 19.4 5 Norte 16 Noroeste 0 976.8 -1.7 34
2020-03-09 13:00:00 17.5 5 Noroeste 20 Noroeste 0 977.5 -0.6 42
2020-03-09 12:00:00 16.3 3 Noroeste 15 Noroeste 0 978.1 0.3 49
2020-03-09 11:00:00 14.1 2 Nordeste 12 Nordeste 0 978.5 1.2 59
2020-03-09 10:00:00 10 0 Calma 5 Sudeste 0 978.1 1.2 67
2020-03-09 09:00:00 6.4 0 Calma 3 Sudeste 0 977.8 1.3 76
2020-03-09 08:00:00 5 0 Calma 7 Nordeste 0 977.3 1 79
2020-03-09 07:00:00 5.5 0 Calma 3 Norte 0 976.9 -0.1 76
2020-03-09 06:00:00 5.7 3 Nordeste 7 Noroeste 0 976.5 -0.4 74
2020-03-09 05:00:00 7.5 0 Calma 5 Sudoeste 0 976.3 -1 69
2020-03-09 04:00:00 7.2 0 Calma 10 Noroeste 0 977 -0.1 65
2020-03-09 03:00:00 10.3 5 Noroeste 10 Oeste 0 976.9 0 58
2020-03-09 02:00:00 9.2 0 Calma 6 Oeste 0 977.3 0.1 59
2020-03-09 01:00:00 10.4 0 Calma 9 Nordeste 0 977.1 0 53
2020-03-09 00:00:00 11.6 4 Nordeste 7 Norte 0 976.9 0.2 50
2020-03-08 23:00:00 12.9 0 Calma 6 Noroeste 0 977.2 0.5 46
2020-03-08 22:00:00 14.4 0 Calma 10 Noroeste 0 977.1 1 42
2020-03-08 21:00:00 15.7 6 Noroeste 12 Noroeste 0 976.7 1.2 38
2020-03-08 20:00:00 16.7 5 Noroeste 13 Noroeste 0 976.7 1.4 34
2020-03-08 19:00:00 18.7 8 Noroeste 14 Noroeste 0 976.1 0.8 28
2020-03-08 18:00:00 20.9 7 Noroeste 19 Noroeste 0 975.5 -0.2 24
2020-03-08 17:00:00 21.7 7 Noroeste 22 Noroeste 0 975.3 -1.2 24
2020-03-08 16:00:00 21.5 3 Norte 16 Noroeste 0 975.3 -2.2 27
2020-03-08 15:00:00 20.5 2 Noroeste 17 Noroeste 0 975.7 -2.3 26
2020-03-08 14:00:00 19.5 0 Calma 9 Noroeste 0 976.5 -1.7 29
2020-03-08 13:00:00 18.4 0 Calma 10 Sudeste 0 977.5 -0.1 33
2020-03-08 12:00:00 16 0 Calma 8 Sudeste 0 978 0.8 45
2020-03-08 11:00:00 11.6 2 Sudeste 6 Sudeste 0 978.2 1.7 57
2020-03-08 10:00:00 7.5 0 Calma 6 Sudeste 0 977.6 1.2 68
2020-03-08 09:00:00 4.2 4 Oeste 8 Noroeste 0 977.2 0.9 79
2020-03-08 08:00:00 2.2 2 Noroeste 7 Noroeste 0 976.5 0.3 85
2020-03-08 07:00:00 1.2 0 Calma 7 Nordeste 0 976.4 0.1 84
2020-03-08 06:00:00 2.3 4 Nordeste 6 Nordeste 0 976.3 -0.4 82
2020-03-08 05:00:00 3.3 0 Calma 0 Calma 0 976.2 -0.7 77
2020-03-08 04:00:00 3.4 0 Calma 4 Noroeste 0 976.3 -0.6 75
2020-03-08 03:00:00 4.6 0 Calma 10 Noroeste 0 976.7 -0.7 72
2020-03-08 02:00:00 5 0 Calma 8 Noroeste 0 976.9 -0.7 67
2020-03-08 01:00:00 6.7 0 Calma 5 Noroeste 0 976.9 -0.2 63
2020-03-08 00:00:00 7.8 0 Calma 4 Noroeste 0 977.4 0.5 57